createdAt,value
2022-09-13T00:00:14.261Z,36.56
2022-09-13T00:00:49.157Z,36.82
2022-09-13T00:01:21.715Z,36.32
2022-09-13T00:01:56.593Z,36.63
2022-09-13T00:02:28.870Z,36.53
2022-09-13T00:03:01.262Z,36.62
2022-09-13T00:03:36.449Z,36.45
2022-09-13T00:04:08.870Z,36.46
2022-09-13T00:04:41.370Z,36.45
2022-09-13T00:05:16.202Z,36.49
2022-09-13T00:05:48.983Z,36.26
2022-09-13T00:06:21.798Z,36.31
2022-09-13T00:06:56.603Z,36.41
2022-09-13T00:07:28.803Z,36.42
2022-09-13T00:08:04.434Z,36.22
2022-09-13T00:08:39.246Z,36.19
2022-09-13T00:09:11.468Z,36.22
2022-09-13T00:09:43.668Z,36.45
2022-09-13T00:10:18.805Z,36.59
2022-09-13T00:10:51.013Z,36.64
2022-09-13T00:11:27.372Z,36.37
2022-09-13T00:11:59.591Z,36.53
2022-09-13T00:12:31.849Z,36.62
2022-09-13T00:13:08.397Z,36.52
2022-09-13T00:13:40.605Z,36.76
2022-09-13T00:14:12.799Z,36.39
2022-09-13T00:14:48.426Z,36.57
2022-09-13T00:15:21.765Z,36.23
2022-09-13T00:15:54.021Z,36.37
2022-09-13T00:16:30.531Z,36.47
2022-09-13T00:17:02.866Z,36.37
2022-09-13T00:17:35.398Z,36.45
2022-09-13T00:18:07.596Z,36.46
2022-09-13T00:18:42.711Z,36.37
2022-09-13T00:19:14.984Z,36.67
2022-09-13T00:19:47.493Z,36.46
2022-09-13T00:20:22.333Z,36.67
2022-09-13T00:21:04.711Z,36.33
2022-09-13T00:21:39.526Z,36.12
2022-09-13T00:22:11.792Z,36.60
2022-09-13T00:22:43.997Z,36.15
2022-09-13T00:23:21.430Z,36.32
2022-09-13T00:23:54.752Z,36.37
2022-09-13T00:24:27.022Z,36.28
2022-09-13T00:24:59.248Z,36.44
2022-09-13T00:25:34.310Z,36.32
2022-09-13T00:26:08.222Z,36.49
2022-09-13T00:26:40.428Z,36.27
2022-09-13T00:27:15.690Z,36.23
2022-09-13T00:27:48.318Z,36.11
2022-09-13T00:28:20.518Z,36.37
2022-09-13T00:28:56.453Z,36.45
2022-09-13T00:29:28.673Z,36.20
2022-09-13T00:30:01.130Z,36.06
2022-09-13T00:30:36.254Z,36.25
2022-09-13T00:31:10.193Z,35.99
2022-09-13T00:31:42.520Z,36.24
2022-09-13T00:32:17.368Z,36.28
2022-09-13T00:32:49.565Z,36.07
2022-09-13T00:33:21.757Z,36.55
2022-09-13T00:33:57.087Z,36.20
2022-09-13T00:34:29.465Z,36.23
2022-09-13T00:35:01.753Z,36.10
2022-09-13T00:35:36.545Z,35.97
2022-09-13T00:36:11.266Z,35.96
2022-09-13T00:36:46.074Z,36.03
2022-09-13T00:37:18.328Z,36.08
2022-09-13T00:37:50.634Z,36.21
2022-09-13T00:38:25.592Z,36.37
2022-09-13T00:39:00.815Z,36.30
2022-09-13T00:39:33.332Z,36.20
2022-09-13T00:40:07.316Z,36.29
2022-09-13T00:40:42.145Z,36.24
2022-09-13T00:41:17.323Z,36.15
2022-09-13T00:41:52.245Z,36.11
2022-09-13T00:42:26.095Z,36.25
2022-09-13T00:42:58.392Z,36.05
2022-09-13T00:43:48.428Z,36.03
2022-09-13T00:44:50.122Z,36.15
2022-09-13T00:45:25.173Z,36.19
2022-09-13T00:45:57.452Z,36.10
2022-09-13T00:46:35.210Z,35.81
2022-09-13T00:47:10.043Z,36.18
2022-09-13T00:47:44.064Z,36.16
2022-09-13T00:48:23.350Z,36.00
2022-09-13T00:48:59.457Z,35.95
2022-09-13T00:49:35.937Z,35.82
2022-09-13T00:50:15.046Z,35.86
2022-09-13T00:50:51.259Z,36.09
2022-09-13T00:51:23.605Z,35.96
2022-09-13T00:52:00.185Z,36.12
2022-09-13T00:52:36.585Z,36.17
2022-09-13T00:53:11.030Z,35.84
2022-09-13T00:53:49.055Z,36.01
2022-09-13T00:54:25.921Z,36.02
2022-09-13T00:55:02.187Z,36.03
2022-09-13T00:55:38.697Z,35.92
2022-09-13T00:56:18.109Z,35.91
2022-09-13T00:56:53.574Z,36.01
2022-09-13T00:57:26.248Z,35.76
2022-09-13T00:58:04.760Z,35.97
2022-09-13T00:58:39.701Z,35.87
2022-09-13T00:59:14.342Z,35.75
2022-09-13T00:59:54.522Z,36.25
2022-09-13T01:00:26.799Z,35.89
2022-09-13T01:01:00.096Z,36.05
2022-09-13T01:01:38.630Z,36.08
2022-09-13T01:02:11.275Z,35.93
2022-09-13T01:02:46.634Z,36.06
2022-09-13T01:03:23.241Z,36.23
2022-09-13T01:03:55.927Z,35.69
2022-09-13T01:04:29.549Z,36.15
2022-09-13T01:05:02.347Z,35.69
2022-09-13T01:05:39.897Z,35.97
2022-09-13T01:06:15.385Z,35.81
2022-09-13T01:06:48.072Z,36.23
2022-09-13T01:07:23.109Z,35.80
2022-09-13T01:07:55.719Z,36.03
2022-09-13T01:08:29.449Z,35.85
2022-09-13T01:09:07.956Z,36.08
2022-09-13T01:09:42.570Z,35.83
2022-09-13T01:10:15.145Z,35.62
2022-09-13T01:10:51.122Z,36.01
2022-09-13T01:11:28.452Z,35.77
2022-09-13T01:12:04.783Z,35.91
2022-09-13T01:12:44.627Z,36.11
2022-09-13T01:13:19.041Z,36.13
2022-09-13T01:13:51.719Z,35.79
2022-09-13T01:14:26.953Z,35.68
2022-09-13T01:15:00.194Z,36.10
2022-09-13T01:15:32.435Z,35.91
2022-09-13T01:16:07.346Z,35.92
2022-09-13T01:16:39.734Z,35.77
2022-09-13T01:17:12.275Z,35.60
2022-09-13T01:17:47.314Z,35.60
2022-09-13T01:18:19.779Z,35.78
2022-09-13T01:18:52.049Z,35.81
2022-09-13T01:19:26.869Z,35.64
2022-09-13T01:19:59.996Z,36.03
2022-09-13T01:20:41.148Z,35.77
2022-09-13T01:21:51.102Z,35.79
2022-09-13T01:22:56.419Z,35.57
2022-09-13T01:23:47.042Z,35.84
2022-09-13T01:24:59.741Z,35.99
2022-09-13T01:26:14.037Z,35.45
2022-09-13T01:27:03.816Z,35.81
2022-09-13T01:27:50.165Z,35.68
2022-09-13T01:28:38.552Z,35.64
2022-09-13T01:29:41.173Z,35.90
2022-09-13T01:30:18.482Z,35.71
2022-09-13T01:30:54.144Z,35.65
2022-09-13T01:31:34.571Z,35.71
2022-09-13T01:32:12.639Z,35.87
2022-09-13T01:33:01.856Z,35.91
2022-09-13T01:33:54.072Z,35.80
2022-09-13T01:34:31.777Z,35.67
2022-09-13T01:35:17.110Z,35.81
2022-09-13T01:35:58.893Z,35.67
2022-09-13T01:37:00.764Z,35.58
2022-09-13T01:37:42.813Z,35.50
2022-09-13T01:38:29.078Z,35.54
2022-09-13T01:39:07.473Z,35.51
2022-09-13T01:39:59.548Z,35.42
2022-09-13T01:40:48.424Z,35.40
2022-09-13T01:41:37.178Z,35.87
2022-09-13T01:42:19.437Z,35.31
2022-09-13T01:43:05.041Z,35.53
2022-09-13T01:43:46.211Z,35.48
2022-09-13T01:44:34.802Z,35.62
2022-09-13T01:45:14.673Z,35.90
2022-09-13T01:45:55.054Z,35.63
2022-09-13T01:46:34.899Z,35.60
2022-09-13T01:47:15.366Z,35.69
2022-09-13T01:47:51.714Z,35.91
2022-09-13T01:48:31.896Z,35.59
2022-09-13T01:49:10.321Z,35.35
2022-09-13T01:49:50.637Z,35.60
2022-09-13T01:50:29.230Z,35.56
2022-09-13T01:51:05.574Z,35.79
2022-09-13T01:51:44.925Z,35.74
2022-09-13T01:52:22.150Z,35.69
2022-09-13T01:52:56.710Z,35.47
2022-09-13T01:53:35.609Z,35.40
2022-09-13T01:54:13.790Z,35.50
2022-09-13T01:54:50.613Z,35.73
2022-09-13T01:55:32.510Z,35.42
2022-09-13T01:56:07.709Z,35.38
2022-09-13T01:56:43.643Z,35.42
2022-09-13T01:57:21.088Z,35.46
2022-09-13T01:57:57.220Z,35.59
2022-09-13T01:58:35.559Z,35.64
2022-09-13T01:59:15.970Z,35.50
2022-09-13T01:59:51.149Z,35.30
2022-09-13T02:00:23.360Z,35.40
2022-09-13T02:01:04.783Z,35.42
2022-09-13T02:01:42.082Z,35.39
2022-09-13T02:02:17.053Z,35.18
2022-09-13T02:02:53.054Z,35.67
2022-09-13T02:03:31.490Z,35.58
2022-09-13T02:04:07.010Z,35.70
2022-09-13T02:04:41.809Z,35.44
2022-09-13T02:05:21.630Z,35.74
2022-09-13T02:05:56.554Z,35.43
2022-09-13T02:06:31.378Z,35.42
2022-09-13T02:07:10.058Z,35.40
2022-09-13T02:07:44.703Z,35.65
2022-09-13T02:08:19.890Z,35.50
2022-09-13T02:08:57.428Z,35.26
2022-09-13T02:09:33.237Z,35.41
2022-09-13T02:10:09.744Z,35.21
2022-09-13T02:10:46.822Z,35.42
2022-09-13T02:11:21.004Z,35.23
2022-09-13T02:11:56.781Z,35.71
2022-09-13T02:12:33.368Z,35.47
2022-09-13T02:13:11.427Z,35.70
2022-09-13T02:13:47.525Z,35.40
2022-09-13T02:14:24.301Z,35.21
2022-09-13T02:15:00.988Z,35.49
2022-09-13T02:15:39.850Z,35.21
2022-09-13T02:16:18.374Z,35.41
2022-09-13T02:16:53.001Z,35.66
2022-09-13T02:17:29.198Z,35.69
2022-09-13T02:18:06.770Z,35.52
2022-09-13T02:18:43.443Z,35.25
2022-09-13T02:19:19.144Z,35.42
2022-09-13T02:19:54.486Z,35.60
2022-09-13T02:20:32.164Z,35.77
2022-09-13T02:21:09.256Z,35.29
2022-09-13T02:21:47.982Z,35.28
2022-09-13T02:22:23.668Z,35.56
2022-09-13T02:22:58.330Z,35.52
2022-09-13T02:23:36.190Z,35.30
2022-09-13T02:24:15.206Z,35.45
2022-09-13T02:24:49.162Z,35.74
2022-09-13T02:25:23.401Z,35.58
2022-09-13T02:25:58.453Z,35.32
2022-09-13T02:26:31.886Z,35.18
2022-09-13T02:27:07.237Z,35.28
2022-09-13T02:27:46.218Z,35.71
2022-09-13T02:28:22.365Z,35.53
2022-09-13T02:28:56.007Z,35.38
2022-09-13T02:29:31.991Z,35.15
2022-09-13T02:30:08.466Z,35.49
2022-09-13T02:30:43.997Z,35.41
2022-09-13T02:31:25.457Z,35.35
2022-09-13T02:32:00.763Z,35.74
2022-09-13T02:32:37.101Z,35.20
2022-09-13T02:33:15.421Z,35.45
2022-09-13T02:33:52.179Z,35.24
2022-09-13T02:34:28.813Z,35.28
2022-09-13T02:35:06.921Z,35.31
2022-09-13T02:35:42.987Z,35.44
2022-09-13T02:36:19.272Z,35.35
2022-09-13T02:36:55.752Z,35.66
2022-09-13T02:37:30.482Z,35.37
2022-09-13T02:38:05.982Z,35.50
2022-09-13T02:38:46.206Z,35.36
2022-09-13T02:39:22.410Z,35.64
2022-09-13T02:39:58.276Z,35.51
2022-09-13T02:40:36.977Z,35.33
2022-09-13T02:41:15.149Z,35.37
2022-09-13T02:41:55.182Z,35.28
2022-09-13T02:42:31.653Z,35.40
2022-09-13T02:43:06.834Z,35.52
2022-09-13T02:43:45.265Z,35.33
2022-09-13T02:44:22.922Z,35.67
2022-09-13T02:44:57.238Z,35.45
2022-09-13T02:45:36.322Z,35.69
2022-09-13T02:46:26.190Z,35.39
2022-09-13T02:47:17.007Z,35.34
2022-09-13T02:47:56.955Z,35.38
2022-09-13T02:48:37.421Z,35.54
2022-09-13T02:49:17.148Z,35.42
2022-09-13T02:49:55.967Z,35.38
2022-09-13T02:50:35.257Z,35.42
2022-09-13T02:51:13.386Z,35.37
2022-09-13T02:51:51.257Z,35.40
2022-09-13T02:52:33.829Z,35.49
2022-09-13T02:53:15.708Z,35.66
2022-09-13T02:53:51.877Z,35.33
2022-09-13T02:54:27.917Z,35.10
2022-09-13T02:55:11.186Z,35.40
2022-09-13T02:55:48.425Z,35.08
2022-09-13T02:56:24.602Z,35.28
2022-09-13T02:57:02.618Z,35.13
2022-09-13T02:57:38.569Z,35.31
2022-09-13T02:58:15.625Z,35.41
2022-09-13T02:58:52.353Z,35.42
2022-09-13T02:59:25.282Z,35.11
2022-09-13T03:00:00.191Z,35.55
2022-09-13T03:00:32.439Z,35.38
2022-09-13T03:01:04.732Z,35.57
2022-09-13T03:01:42.887Z,35.23
2022-09-13T03:02:17.176Z,35.53
2022-09-13T03:02:50.675Z,35.30
2022-09-13T03:03:25.537Z,35.07
2022-09-13T03:03:57.748Z,35.23
2022-09-13T03:04:30.142Z,35.54
2022-09-13T03:05:05.397Z,35.29
2022-09-13T03:05:37.846Z,35.08
2022-09-13T03:06:10.117Z,35.32
2022-09-13T03:06:45.115Z,35.29
2022-09-13T03:07:17.645Z,35.32
2022-09-13T03:07:50.094Z,35.18
2022-09-13T03:08:25.334Z,35.13
2022-09-13T03:08:59.451Z,35.04
2022-09-13T03:09:32.101Z,35.01
2022-09-13T03:10:10.450Z,35.20
2022-09-13T03:10:50.130Z,35.11
2022-09-13T03:11:29.889Z,35.33
2022-09-13T03:12:23.690Z,35.42
2022-09-13T03:13:32.879Z,35.17
2022-09-13T03:14:20.426Z,35.08
2022-09-13T03:14:56.783Z,35.01
2022-09-13T03:15:37.974Z,35.26
2022-09-13T03:16:33.681Z,35.36
2022-09-13T03:17:17.311Z,35.35
2022-09-13T03:17:55.260Z,35.03
2022-09-13T03:18:41.061Z,35.52
2022-09-13T03:19:25.844Z,35.48
2022-09-13T03:20:07.633Z,35.17
2022-09-13T03:20:47.225Z,35.53
2022-09-13T03:21:35.177Z,35.17
2022-09-13T03:22:22.572Z,35.08
2022-09-13T03:23:25.284Z,35.27
2022-09-13T03:24:06.562Z,35.16
2022-09-13T03:24:45.321Z,35.41
2022-09-13T03:25:27.108Z,35.03
2022-09-13T03:26:12.929Z,35.31
2022-09-13T03:26:58.019Z,35.37
2022-09-13T03:27:34.973Z,35.08
2022-09-13T03:28:14.208Z,35.39
2022-09-13T03:28:56.679Z,35.00
2022-09-13T03:29:33.690Z,35.10
2022-09-13T03:30:07.441Z,35.14
2022-09-13T03:30:47.129Z,35.39
2022-09-13T03:31:24.073Z,35.36
2022-09-13T03:32:04.347Z,35.11
2022-09-13T03:32:48.653Z,34.90
2022-09-13T03:33:27.285Z,35.18
2022-09-13T03:34:03.930Z,35.08
2022-09-13T03:34:47.146Z,35.19
2022-09-13T03:35:26.687Z,35.08
2022-09-13T03:36:09.093Z,35.21
2022-09-13T03:36:46.141Z,35.35
2022-09-13T03:37:25.216Z,35.06
2022-09-13T03:38:02.602Z,35.12
2022-09-13T03:38:39.734Z,35.35
2022-09-13T03:39:17.409Z,35.11
2022-09-13T03:39:57.180Z,35.15
2022-09-13T03:40:42.018Z,35.02
2022-09-13T03:41:16.619Z,35.08
2022-09-13T03:41:55.669Z,34.99
2022-09-13T03:42:33.637Z,34.83
2022-09-13T03:43:14.466Z,35.05
2022-09-13T03:43:50.549Z,35.23
2022-09-13T03:44:24.464Z,35.07
2022-09-13T03:45:00.371Z,35.11
2022-09-13T03:45:35.914Z,34.89
2022-09-13T03:46:11.609Z,34.87
2022-09-13T03:46:47.918Z,34.85
2022-09-13T03:47:20.503Z,34.89
2022-09-13T03:47:55.947Z,35.31
2022-09-13T03:48:31.279Z,34.96
2022-09-13T03:49:05.222Z,35.23
2022-09-13T03:49:38.276Z,34.92
2022-09-13T03:50:13.694Z,34.83
2022-09-13T03:50:46.589Z,34.79
2022-09-13T03:51:19.089Z,34.78
2022-09-13T03:51:55.087Z,35.01
2022-09-13T03:52:27.624Z,34.85
2022-09-13T03:53:03.990Z,35.05
2022-09-13T03:53:40.889Z,35.00
2022-09-13T03:54:17.118Z,34.89
2022-09-13T03:54:49.406Z,34.94
2022-09-13T03:55:22.345Z,34.84
2022-09-13T03:55:57.179Z,34.84
2022-09-13T03:56:29.400Z,35.12
2022-09-13T03:57:12.922Z,34.87
2022-09-13T03:57:47.729Z,34.99
2022-09-13T03:58:21.713Z,34.92
2022-09-13T03:58:56.566Z,34.69
2022-09-13T03:59:29.000Z,34.91
2022-09-13T04:00:01.681Z,35.06
2022-09-13T04:00:46.814Z,35.13
2022-09-13T04:01:22.032Z,34.84
2022-09-13T04:01:54.313Z,34.68
2022-09-13T04:02:29.682Z,34.76
2022-09-13T04:03:04.553Z,35.28
2022-09-13T04:03:36.945Z,34.99
2022-09-13T04:04:09.180Z,34.89
2022-09-13T04:04:44.964Z,35.15
2022-09-13T04:05:17.980Z,34.84
2022-09-13T04:05:50.368Z,35.08
2022-09-13T04:06:25.158Z,34.62
2022-09-13T04:06:57.549Z,35.04
2022-09-13T04:07:29.829Z,34.92
2022-09-13T04:08:05.882Z,34.87
2022-09-13T04:08:38.106Z,34.87
2022-09-13T04:09:10.313Z,35.06
2022-09-13T04:09:45.998Z,35.33
2022-09-13T04:10:18.204Z,34.65
2022-09-13T04:10:51.581Z,34.61
2022-09-13T04:11:26.427Z,35.08
2022-09-13T04:11:58.672Z,34.86
2022-09-13T04:12:31.943Z,34.96
2022-09-13T04:13:07.073Z,34.60
2022-09-13T04:13:39.377Z,34.84
2022-09-13T04:14:11.569Z,34.52
2022-09-13T04:14:46.973Z,34.52
2022-09-13T04:15:19.208Z,34.89
2022-09-13T04:15:51.420Z,34.81
2022-09-13T04:16:26.277Z,35.07
2022-09-13T04:16:58.942Z,34.62
2022-09-13T04:17:31.154Z,34.91
2022-09-13T04:18:09.180Z,35.00
2022-09-13T04:18:41.416Z,34.82
2022-09-13T04:19:14.228Z,34.78
2022-09-13T04:19:47.242Z,34.82
2022-09-13T04:20:22.382Z,35.02
2022-09-13T04:20:55.210Z,34.53
2022-09-13T04:21:28.118Z,34.79
2022-09-13T04:22:03.118Z,35.01
2022-09-13T04:22:35.329Z,34.74
2022-09-13T04:23:07.533Z,34.61
2022-09-13T04:23:42.430Z,34.57
2022-09-13T04:24:15.277Z,34.60
2022-09-13T04:24:47.505Z,35.04
2022-09-13T04:25:22.644Z,34.86
2022-09-13T04:25:54.881Z,34.69
2022-09-13T04:26:27.131Z,34.90
2022-09-13T04:27:02.264Z,34.80
2022-09-13T04:27:35.769Z,34.72
2022-09-13T04:28:07.991Z,34.84
2022-09-13T04:28:42.807Z,34.39
2022-09-13T04:29:15.133Z,34.49
2022-09-13T04:29:47.353Z,34.78
2022-09-13T04:30:22.156Z,34.53
2022-09-13T04:30:54.354Z,34.79
2022-09-13T04:31:26.617Z,34.74
2022-09-13T04:32:02.153Z,34.55
2022-09-13T04:32:34.367Z,34.57
2022-09-13T04:33:09.219Z,34.41
2022-09-13T04:33:44.128Z,34.69
2022-09-13T04:34:17.468Z,34.41
2022-09-13T04:34:52.277Z,34.46
2022-09-13T04:35:24.565Z,34.94
2022-09-13T04:35:59.061Z,34.80
2022-09-13T04:36:33.862Z,34.95
2022-09-13T04:37:06.061Z,34.75
2022-09-13T04:37:38.551Z,34.62
2022-09-13T04:38:13.362Z,34.97
2022-09-13T04:38:47.484Z,34.62
2022-09-13T04:39:20.305Z,34.70
2022-09-13T04:39:55.135Z,34.92
2022-09-13T04:40:27.543Z,34.66
2022-09-13T04:40:59.757Z,34.60
2022-09-13T04:41:34.885Z,34.88
2022-09-13T04:42:07.843Z,34.72
2022-09-13T04:42:40.166Z,34.91
2022-09-13T04:43:14.986Z,34.88
2022-09-13T04:43:49.703Z,34.41
2022-09-13T04:44:24.041Z,34.64
2022-09-13T04:44:58.861Z,34.69
2022-09-13T04:45:31.169Z,34.77
2022-09-13T04:46:03.514Z,34.63
2022-09-13T04:46:38.334Z,34.63
2022-09-13T04:47:10.781Z,34.63
2022-09-13T04:47:42.980Z,34.67
2022-09-13T04:48:20.425Z,34.91
2022-09-13T04:48:52.910Z,34.85
2022-09-13T04:49:25.794Z,34.63
2022-09-13T04:50:00.716Z,34.77
2022-09-13T04:50:32.930Z,34.69
2022-09-13T04:51:05.816Z,34.60
2022-09-13T04:51:40.626Z,34.87
2022-09-13T04:52:12.893Z,34.51
2022-09-13T04:52:45.339Z,34.37
2022-09-13T04:53:20.501Z,34.48
2022-09-13T04:53:53.486Z,34.50
2022-09-13T04:54:25.788Z,34.75
2022-09-13T04:55:01.780Z,34.50
2022-09-13T04:55:33.981Z,34.45
2022-09-13T04:56:07.658Z,34.66
2022-09-13T04:56:42.679Z,34.69
2022-09-13T04:57:14.957Z,34.36
2022-09-13T04:57:47.188Z,34.84
2022-09-13T04:58:22.019Z,34.37
2022-09-13T04:58:55.518Z,34.72
2022-09-13T04:59:30.318Z,34.98
2022-09-13T05:00:03.325Z,34.67
2022-09-13T05:00:36.050Z,34.65
2022-09-13T05:01:12.287Z,34.72
2022-09-13T05:01:44.735Z,34.60
2022-09-13T05:02:19.692Z,34.41
2022-09-13T05:02:55.365Z,34.71
2022-09-13T05:03:30.444Z,34.35
2022-09-13T05:04:05.980Z,34.61
2022-09-13T05:04:38.513Z,34.60
2022-09-13T05:05:10.910Z,34.64
2022-09-13T05:05:45.717Z,34.37
2022-09-13T05:06:18.340Z,34.84
2022-09-13T05:06:53.242Z,34.58
2022-09-13T05:07:25.466Z,34.70
2022-09-13T05:07:57.769Z,34.62
2022-09-13T05:08:30.029Z,34.45
2022-09-13T05:09:05.439Z,34.68
2022-09-13T05:09:37.704Z,34.64
2022-09-13T05:10:10.606Z,34.45
2022-09-13T05:10:45.432Z,34.57
2022-09-13T05:11:17.645Z,34.35
2022-09-13T05:11:52.540Z,34.38
2022-09-13T05:12:24.854Z,34.64
2022-09-13T05:12:57.046Z,34.53
2022-09-13T05:13:32.442Z,34.40
2022-09-13T05:14:05.838Z,34.67
2022-09-13T05:14:40.646Z,34.52
2022-09-13T05:15:12.881Z,34.79
2022-09-13T05:15:45.101Z,34.91
2022-09-13T05:16:19.920Z,34.84
2022-09-13T05:16:52.286Z,34.83
2022-09-13T05:17:24.526Z,34.42
2022-09-13T05:17:59.333Z,34.52
2022-09-13T05:18:35.441Z,34.67
2022-09-13T05:19:07.661Z,34.33
2022-09-13T05:19:42.461Z,34.59
2022-09-13T05:20:14.712Z,34.64
2022-09-13T05:20:46.921Z,34.57
2022-09-13T05:21:22.041Z,34.30
2022-09-13T05:21:54.241Z,34.74
2022-09-13T05:22:26.442Z,34.42
2022-09-13T05:23:01.246Z,34.51
2022-09-13T05:23:33.954Z,34.77
2022-09-13T05:24:06.438Z,34.30
2022-09-13T05:24:41.633Z,34.33
2022-09-13T05:25:14.078Z,34.46
2022-09-13T05:25:47.536Z,34.47
2022-09-13T05:26:23.126Z,34.83
2022-09-13T05:26:55.381Z,34.38
2022-09-13T05:27:27.603Z,34.86
2022-09-13T05:28:02.458Z,34.54
2022-09-13T05:28:36.050Z,34.94
2022-09-13T05:29:11.176Z,34.65
2022-09-13T05:29:43.857Z,34.57
2022-09-13T05:30:16.222Z,34.78
2022-09-13T05:30:58.655Z,34.65
2022-09-13T05:31:32.209Z,34.63
2022-09-13T05:32:05.002Z,34.52
2022-09-13T05:32:39.797Z,34.73
2022-09-13T05:33:11.997Z,34.66
2022-09-13T05:33:48.301Z,34.77
2022-09-13T05:34:23.154Z,34.64
2022-09-13T05:34:55.370Z,34.75
2022-09-13T05:35:27.646Z,34.77
2022-09-13T05:36:02.557Z,34.89
2022-09-13T05:36:34.935Z,34.69
2022-09-13T05:37:09.776Z,34.84
2022-09-13T05:37:41.969Z,34.59
2022-09-13T05:38:14.184Z,34.66
2022-09-13T05:38:46.447Z,34.45
2022-09-13T05:39:36.452Z,34.38
2022-09-13T05:40:14.741Z,34.60
2022-09-13T05:40:49.849Z,34.77
2022-09-13T05:41:22.435Z,34.55
2022-09-13T05:41:55.097Z,34.86
2022-09-13T05:42:29.957Z,34.99
2022-09-13T05:43:02.158Z,34.81
2022-09-13T05:43:35.594Z,34.65
2022-09-13T05:44:13.447Z,34.72
2022-09-13T05:44:46.034Z,34.94
2022-09-13T05:45:18.253Z,34.74
2022-09-13T05:45:53.370Z,34.74
2022-09-13T05:46:25.690Z,34.75
2022-09-13T05:46:58.120Z,34.65
2022-09-13T05:47:33.098Z,34.89
2022-09-13T05:48:05.367Z,34.62
2022-09-13T05:48:38.056Z,34.67
2022-09-13T05:49:17.184Z,34.64
2022-09-13T05:50:08.834Z,34.53
2022-09-13T05:50:57.954Z,34.67
2022-09-13T05:51:31.174Z,34.49
2022-09-13T05:52:06.005Z,34.72
2022-09-13T05:52:38.253Z,34.64
2022-09-13T05:53:10.466Z,35.01
2022-09-13T05:53:46.599Z,34.97
2022-09-13T05:54:19.372Z,34.90
2022-09-13T05:54:51.622Z,35.07
2022-09-13T05:55:27.628Z,34.89
2022-09-13T05:55:59.903Z,34.93
2022-09-13T05:56:32.691Z,34.83
2022-09-13T05:57:07.705Z,35.18
2022-09-13T05:57:39.925Z,34.91
2022-09-13T05:58:12.132Z,35.21
2022-09-13T05:58:48.521Z,35.23
2022-09-13T05:59:20.790Z,35.22
2022-09-13T05:59:53.049Z,35.08
2022-09-13T06:00:27.842Z,34.99
2022-09-13T06:01:00.054Z,35.52
2022-09-13T06:01:34.994Z,35.16
2022-09-13T06:02:07.260Z,35.47
2022-09-13T06:02:39.608Z,35.04
2022-09-13T06:03:14.469Z,35.56
2022-09-13T06:03:48.109Z,35.08
2022-09-13T06:04:25.534Z,35.11
2022-09-13T06:04:57.733Z,35.04
2022-09-13T06:05:31.844Z,35.11
2022-09-13T06:06:05.842Z,35.69
2022-09-13T06:06:40.658Z,35.65
2022-09-13T06:07:13.041Z,35.51
2022-09-13T06:07:45.249Z,35.42
2022-09-13T06:08:20.049Z,35.45
2022-09-13T06:08:52.873Z,35.54
2022-09-13T06:09:27.706Z,35.55
2022-09-13T06:09:59.954Z,35.60
2022-09-13T06:10:32.224Z,35.57
2022-09-13T06:11:08.530Z,35.62
2022-09-13T06:11:40.776Z,35.64
2022-09-13T06:12:15.569Z,35.33
2022-09-13T06:12:47.889Z,35.45
2022-09-13T06:13:20.085Z,35.37
2022-09-13T06:13:55.149Z,35.68
2022-09-13T06:14:27.342Z,35.79
2022-09-13T06:14:59.562Z,35.48
2022-09-13T06:15:34.380Z,35.60
2022-09-13T06:16:08.537Z,35.61
2022-09-13T06:16:43.430Z,35.83
2022-09-13T06:17:15.639Z,35.54
2022-09-13T06:17:47.838Z,35.88
2022-09-13T06:18:22.927Z,35.41
2022-09-13T06:18:55.167Z,35.79
2022-09-13T06:19:32.566Z,35.85
2022-09-13T06:20:05.743Z,35.78
2022-09-13T06:20:37.933Z,35.68
2022-09-13T06:21:17.815Z,35.95
2022-09-13T06:21:50.153Z,35.62
2022-09-13T06:22:22.361Z,36.28
2022-09-13T06:22:57.165Z,36.29
2022-09-13T06:23:29.979Z,36.25
2022-09-13T06:24:03.995Z,36.03
2022-09-13T06:24:39.208Z,36.20
2022-09-13T06:25:11.447Z,36.01
2022-09-13T06:25:43.950Z,36.45
2022-09-13T06:26:19.990Z,36.05
2022-09-13T06:26:52.209Z,36.38
2022-09-13T06:27:27.004Z,36.32
2022-09-13T06:27:59.219Z,36.61
2022-09-13T06:28:35.460Z,36.28
2022-09-13T06:29:14.415Z,36.64
2022-09-13T06:29:46.618Z,37.08
2022-09-13T06:30:19.730Z,36.70
2022-09-13T06:30:54.550Z,36.57
2022-09-13T06:31:28.276Z,36.65
2022-09-13T06:32:00.538Z,36.73
2022-09-13T06:32:35.338Z,36.61
2022-09-13T06:33:07.550Z,36.69
2022-09-13T06:33:40.661Z,37.13
2022-09-13T06:34:17.563Z,37.15
2022-09-13T06:34:52.402Z,36.93
2022-09-13T06:35:24.776Z,36.96
2022-09-13T06:36:03.576Z,37.31
2022-09-13T06:36:35.778Z,36.87
2022-09-13T06:37:10.582Z,36.71
2022-09-13T06:37:42.830Z,37.03
2022-09-13T06:38:17.727Z,37.32
2022-09-13T06:38:50.093Z,36.96
2022-09-13T06:39:25.049Z,37.55
2022-09-13T06:39:57.859Z,37.22
2022-09-13T06:40:30.251Z,37.10
2022-09-13T06:41:06.577Z,37.31
2022-09-13T06:41:39.152Z,37.45
2022-09-13T06:42:13.961Z,37.30
2022-09-13T06:42:46.201Z,37.38
2022-09-13T06:43:18.414Z,37.28
2022-09-13T06:43:56.339Z,37.42
2022-09-13T06:44:29.367Z,37.71
2022-09-13T06:45:04.178Z,37.71
2022-09-13T06:45:37.365Z,37.44
2022-09-13T06:46:11.924Z,37.81
2022-09-13T06:46:46.798Z,38.00
2022-09-13T06:47:19.064Z,37.71
2022-09-13T06:47:54.237Z,37.55
2022-09-13T06:48:29.137Z,38.12
2022-09-13T06:49:02.465Z,37.63
2022-09-13T06:49:37.276Z,37.71
2022-09-13T06:50:12.497Z,38.14
2022-09-13T06:50:45.706Z,38.02
2022-09-13T06:51:22.150Z,38.10
2022-09-13T06:51:54.367Z,37.91
2022-09-13T06:52:26.579Z,37.68
2022-09-13T06:53:01.405Z,38.07
2022-09-13T06:53:34.909Z,38.25
2022-09-13T06:54:07.129Z,37.54
2022-09-13T06:54:41.958Z,37.95
2022-09-13T06:55:14.209Z,37.95
2022-09-13T06:55:46.405Z,38.73
2022-09-13T06:56:23.315Z,37.88
2022-09-13T06:56:55.565Z,38.34
2022-09-13T06:57:30.546Z,37.71
2022-09-13T06:58:05.370Z,38.99
2022-09-13T06:58:38.529Z,39.24
2022-09-13T06:59:11.160Z,38.41
2022-09-13T06:59:46.727Z,38.34
2022-09-13T07:00:19.106Z,39.41
2022-09-13T07:00:55.914Z,38.53
2022-09-13T07:01:32.392Z,38.68
2022-09-13T07:02:04.741Z,38.64
2022-09-13T07:02:37.081Z,38.44
2022-09-13T07:03:11.901Z,38.56
2022-09-13T07:03:45.621Z,38.25
2022-09-13T07:04:21.689Z,38.65
2022-09-13T07:04:53.890Z,39.02
2022-09-13T07:05:28.707Z,39.01
2022-09-13T07:06:03.506Z,38.63
2022-09-13T07:06:37.045Z,38.73
2022-09-13T07:07:11.882Z,39.06
2022-09-13T07:07:44.086Z,38.14
2022-09-13T07:08:16.309Z,38.53
2022-09-13T07:08:51.701Z,39.37
2022-09-13T07:09:24.349Z,39.33
2022-09-13T07:10:01.067Z,38.97
2022-09-13T07:10:33.318Z,38.65
2022-09-13T07:11:05.932Z,39.62
2022-09-13T07:11:42.324Z,39.72
2022-09-13T07:12:17.667Z,39.02
2022-09-13T07:12:52.626Z,39.40
2022-09-13T07:13:27.467Z,38.78
2022-09-13T07:14:00.230Z,39.36
2022-09-13T07:14:35.212Z,39.44
2022-09-13T07:15:08.617Z,39.30
2022-09-13T07:15:40.923Z,39.28
2022-09-13T07:16:15.790Z,39.54
2022-09-13T07:16:48.225Z,39.44
2022-09-13T07:17:23.020Z,39.48
2022-09-13T07:17:55.220Z,39.22
2022-09-13T07:18:27.438Z,40.48
2022-09-13T07:19:05.679Z,40.18
2022-09-13T07:19:37.893Z,39.85
2022-09-13T07:20:11.054Z,39.36
2022-09-13T07:20:48.469Z,40.13
2022-09-13T07:21:21.109Z,39.41
2022-09-13T07:21:56.785Z,39.73
2022-09-13T07:22:29.017Z,39.49
2022-09-13T07:23:01.213Z,40.05
2022-09-13T07:23:36.910Z,39.29
2022-09-13T07:24:09.612Z,39.67
2022-09-13T07:24:44.415Z,39.44
2022-09-13T07:25:16.734Z,39.43
2022-09-13T07:25:54.668Z,40.12
2022-09-13T07:26:30.400Z,39.19
2022-09-13T07:27:02.615Z,39.79
2022-09-13T07:27:34.820Z,39.43
2022-09-13T07:28:09.693Z,40.30
2022-09-13T07:28:43.489Z,39.48
2022-09-13T07:29:22.651Z,39.93
2022-09-13T07:29:55.188Z,39.88
2022-09-13T07:30:27.744Z,40.13
2022-09-13T07:31:08.617Z,40.08
2022-09-13T07:31:42.890Z,40.45
2022-09-13T07:32:17.731Z,40.40
2022-09-13T07:32:49.936Z,40.21
2022-09-13T07:33:22.170Z,39.59
2022-09-13T07:33:58.257Z,39.34
2022-09-13T07:34:30.594Z,40.21
2022-09-13T07:35:02.873Z,40.57
2022-09-13T07:35:37.673Z,39.54
2022-09-13T07:36:13.505Z,40.37
2022-09-13T07:36:48.374Z,40.37
2022-09-13T07:37:20.574Z,41.08
2022-09-13T07:37:52.806Z,40.68
2022-09-13T07:38:27.629Z,39.72
2022-09-13T07:39:00.273Z,39.59
2022-09-13T07:39:35.068Z,39.95
2022-09-13T07:40:09.305Z,40.38